Time;durP1;ratioP1;P1;durP2;ratioP2;P2;SDS_P1;SDS_P2;PMS_P1;PMS_P2;Temp;Humidity;BMP_temperature;BMP_pressure;BME280_temperature;BME280_humidity;BME280_pressure;Samples;Min_cycle;Max_cycle;Signal;HPM_P1;HPM_P2
2023/04/27 00:02:11;;;;;;;4.17;3.27;;;;;;;;;;5058497;28;20218;-63
2023/04/27 00:04:39;;;;;;;5.40;2.87;;;;;;;;;;5040495;28;20206;-63
2023/04/27 00:07:07;;;;;;;5.27;2.80;;;;;;;;;;5038149;28;20593;-63
2023/04/27 00:09:37;;;;;;;5.87;2.80;;;;;;;;;;5038111;28;20686;-63
2023/04/27 00:12:05;;;;;;;5.03;2.80;;;;;;;;;;5050229;28;20202;-62
2023/04/27 00:14:33;;;;;;;3.50;2.57;;;;;;;;;;5057398;28;20214;-62
2023/04/27 00:17:01;;;;;;;4.47;2.60;;;;;;;;;;5058013;28;20223;-63
2023/04/27 00:19:29;;;;;;;4.67;2.43;;;;;;;;;;5057263;28;20264;-62
2023/04/27 00:21:58;;;;;;;2.63;2.40;;;;;;;;;;5057357;28;20230;-63
2023/04/27 00:24:27;;;;;;;4.73;2.80;;;;;;;;;;5056398;28;20206;-63
2023/04/27 00:26:56;;;;;;;3.13;2.60;;;;;;;;;;5057093;28;20219;-63
2023/04/27 00:29:24;;;;;;;4.07;2.70;;;;;;;;;;5057335;28;20207;-62
2023/04/27 00:31:52;;;;;;;3.13;2.70;;;;;;;;;;5057181;28;20214;-63
2023/04/27 00:34:20;;;;;;;5.03;2.50;;;;;;;;;;5056171;28;20206;-63
2023/04/27 00:36:48;;;;;;;3.90;2.47;;;;;;;;;;5056918;28;20231;-63
2023/04/27 00:39:16;;;;;;;4.47;2.80;;;;;;;;;;5056810;28;20639;-63
2023/04/27 00:41:44;;;;;;;3.00;2.67;;;;;;;;;;5056820;28;20674;-62
2023/04/27 00:44:14;;;;;;;2.37;2.17;;;;;;;;;;5056032;28;20674;-62
2023/04/27 00:46:42;;;;;;;2.47;2.27;;;;;;;;;;5056663;28;20231;-62
2023/04/27 00:49:10;;;;;;;2.40;2.13;;;;;;;;;;5056583;28;20554;-62
2023/04/27 00:51:38;;;;;;;3.27;2.27;;;;;;;;;;5056641;28;20210;-62
2023/04/27 00:54:09;;;;;;;3.00;2.20;;;;;;;;;;5055959;28;20207;-63
2023/04/27 00:56:37;;;;;;;2.43;2.13;;;;;;;;;;5051710;28;20310;-63
2023/04/27 00:59:05;;;;;;;5.20;2.50;;;;;;;;;;5045939;28;20218;-62
2023/04/27 01:01:35;;;;;;;3.50;2.90;;;;;;;;;;5056504;28;20230;-63
2023/04/27 01:04:03;;;;;;;2.93;2.43;;;;;;;;;;5044089;28;20211;-63
2023/04/27 01:06:31;;;;;;;4.47;2.87;;;;;;;;;;5036915;28;20231;-62
2023/04/27 01:08:59;;;;;;;2.67;2.43;;;;;;;;;;5040086;28;20694;-62
2023/04/27 01:11:27;;;;;;;3.10;2.33;;;;;;;;;;5046684;28;20723;-63
2023/04/27 01:13:55;;;;;;;4.27;2.77;;;;;;;;;;5059219;28;20277;-62
2023/04/27 01:16:23;;;;;;;3.60;2.47;;;;;;;;;;5047370;28;20238;-63
2023/04/27 01:18:53;;;;;;;5.30;2.57;;;;;;;;;;4996605;28;1247340;-63
2023/04/27 01:21:21;;;;;;;3.87;2.50;;;;;;;;;;5041571;28;20211;-63
2023/04/27 01:23:50;;;;;;;2.47;2.17;;;;;;;;;;5051016;28;20321;-63
2023/04/27 01:26:18;;;;;;;3.03;2.47;;;;;;;;;;5060957;28;20622;-63
2023/04/27 01:28:46;;;;;;;4.77;2.30;;;;;;;;;;5061343;28;20256;-63
2023/04/27 01:31:14;;;;;;;2.37;2.03;;;;;;;;;;5061396;28;20209;-63
2023/04/27 01:33:42;;;;;;;4.43;2.40;;;;;;;;;;5060226;28;20203;-63
2023/04/27 01:36:10;;;;;;;2.33;2.10;;;;;;;;;;5061094;28;20318;-63
2023/04/27 01:38:38;;;;;;;3.30;2.23;;;;;;;;;;5061164;28;20207;-62
2023/04/27 01:41:08;;;;;;;3.77;2.43;;;;;;;;;;5060853;28;20213;-62
2023/04/27 01:43:36;;;;;;;3.27;2.40;;;;;;;;;;5060225;28;20214;-63
2023/04/27 01:46:05;;;;;;;4.57;2.63;;;;;;;;;;5060850;28;20299;-63
2023/04/27 01:48:33;;;;;;;3.00;2.40;;;;;;;;;;5061004;28;20217;-63
2023/04/27 01:51:02;;;;;;;6.67;2.30;;;;;;;;;;5060778;28;20211;-63
2023/04/27 01:53:30;;;;;;;4.83;2.40;;;;;;;;;;5059841;28;20277;-63
2023/04/27 01:55:59;;;;;;;5.23;2.40;;;;;;;;;;5060584;28;20705;-63
2023/04/27 01:58:28;;;;;;;4.57;2.23;;;;;;;;;;5060536;28;20230;-63
2023/04/27 02:00:56;;;;;;;2.50;2.30;;;;;;;;;;5060707;28;20210;-63
2023/04/27 02:03:24;;;;;;;4.33;2.37;;;;;;;;;;5059871;28;20222;-63
2023/04/27 02:05:53;;;;;;;4.50;2.13;;;;;;;;;;5045165;28;20346;-63
2023/04/27 02:08:21;;;;;;;3.00;2.00;;;;;;;;;;5040365;28;20632;-63
2023/04/27 02:10:49;;;;;;;4.47;2.33;;;;;;;;;;5045837;28;20669;-63
2023/04/27 02:13:17;;;;;;;4.80;2.20;;;;;;;;;;5060585;28;20210;-63
2023/04/27 02:15:46;;;;;;;3.37;1.90;;;;;;;;;;5060158;28;20293;-63
2023/04/27 02:18:14;;;;;;;10.47;2.60;;;;;;;;;;5059819;28;20230;-63
2023/04/27 02:20:42;;;;;;;3.23;2.23;;;;;;;;;;5059137;28;20705;-62
2023/04/27 02:23:10;;;;;;;3.60;2.40;;;;;;;;;;5060080;28;20246;-63
2023/04/27 02:25:41;;;;;;;3.37;2.30;;;;;;;;;;5059844;28;20918;-63
2023/04/27 02:28:09;;;;;;;3.10;2.37;;;;;;;;;;5060057;28;20235;-63
2023/04/27 02:30:38;;;;;;;3.80;2.00;;;;;;;;;;5059337;28;20206;-63
2023/04/27 02:33:07;;;;;;;3.20;2.20;;;;;;;;;;5060217;28;20207;-63
2023/04/27 02:35:35;;;;;;;2.50;2.10;;;;;;;;;;5053532;28;20659;-63
2023/04/27 02:38:03;;;;;;;3.53;2.27;;;;;;;;;;5056868;28;20223;-63
2023/04/27 02:40:34;;;;;;;2.27;2.17;;;;;;;;;;5041228;28;20572;-63
2023/04/27 02:43:02;;;;;;;2.83;2.20;;;;;;;;;;5057380;28;20207;-63
2023/04/27 02:45:30;;;;;;;4.70;2.30;;;;;;;;;;5051278;28;20259;-63
2023/04/27 02:47:58;;;;;;;5.57;2.50;;;;;;;;;;5037952;28;20243;-63
2023/04/27 02:50:28;;;;;;;2.90;2.13;;;;;;;;;;5038507;28;20207;-63
2023/04/27 02:52:56;;;;;;;3.47;2.30;;;;;;;;;;5058247;28;20289;-63
2023/04/27 02:55:24;;;;;;;3.17;2.10;;;;;;;;;;5059073;28;20262;-62
2023/04/27 02:57:52;;;;;;;3.70;2.13;;;;;;;;;;5059246;28;20262;-62
2023/04/27 03:00:23;;;;;;;3.30;2.17;;;;;;;;;;5059392;28;20293;-63
2023/04/27 03:02:53;;;;;;;3.53;2.20;;;;;;;;;;5042332;28;20207;-63
2023/04/27 03:05:22;;;;;;;2.27;2.07;;;;;;;;;;5046826;28;20238;-63
2023/04/27 03:07:51;;;;;;;2.97;2.33;;;;;;;;;;5059211;28;20709;-63
2023/04/27 03:10:19;;;;;;;3.23;2.40;;;;;;;;;;5058891;28;20236;-63
2023/04/27 03:12:47;;;;;;;2.97;2.63;;;;;;;;;;5058079;28;20282;-63
2023/04/27 03:15:15;;;;;;;3.53;2.50;;;;;;;;;;5057995;28;20680;-62
2023/04/27 03:17:43;;;;;;;5.40;2.53;;;;;;;;;;5058919;28;20227;-62
2023/04/27 03:20:11;;;;;;;3.33;2.17;;;;;;;;;;5058529;28;20242;-63
2023/04/27 03:22:39;;;;;;;4.67;2.30;;;;;;;;;;5057902;28;20570;-63
2023/04/27 03:25:09;;;;;;;4.50;2.20;;;;;;;;;;5058560;28;20222;-62
2023/04/27 03:27:37;;;;;;;5.60;2.53;;;;;;;;;;5058705;28;20195;-62
2023/04/27 03:30:06;;;;;;;4.90;2.27;;;;;;;;;;5057882;28;20199;-62
2023/04/27 03:32:34;;;;;;;3.97;3.00;;;;;;;;;;5057629;28;20290;-62
2023/04/27 03:35:02;;;;;;;3.80;2.23;;;;;;;;;;5058354;28;20229;-63
2023/04/27 03:37:31;;;;;;;3.67;2.57;;;;;;;;;;5058608;28;20281;-62
2023/04/27 03:39:59;;;;;;;4.87;2.43;;;;;;;;;;5058730;28;20972;-62
2023/04/27 03:42:29;;;;;;;6.33;3.20;;;;;;;;;;5058045;28;20203;-62
2023/04/27 03:44:57;;;;;;;8.00;3.00;;;;;;;;;;5057549;28;20203;-62
2023/04/27 03:47:27;;;;;;;4.13;2.47;;;;;;;;;;5058825;28;20217;-62
2023/04/27 03:49:55;;;;;;;3.83;2.20;;;;;;;;;;5058479;28;20210;-63
2023/04/27 03:52:23;;;;;;;4.83;2.10;;;;;;;;;;5058390;28;20306;-62
2023/04/27 03:54:54;;;;;;;5.07;2.70;;;;;;;;;;5057605;28;20242;-62
2023/04/27 03:57:22;;;;;;;7.37;2.80;;;;;;;;;;5058576;28;20206;-62
2023/04/27 03:59:52;;;;;;;3.80;3.07;;;;;;;;;;5057265;28;20662;-62
2023/04/27 04:02:20;;;;;;;9.17;2.70;;;;;;;;;;5046248;28;20204;-62
2023/04/27 04:04:48;;;;;;;4.07;2.20;;;;;;;;;;5038159;28;20215;-62
2023/04/27 04:07:17;;;;;;;2.87;2.40;;;;;;;;;;5038558;28;20204;-63
2023/04/27 04:09:45;;;;;;;4.60;2.20;;;;;;;;;;5051013;28;20211;-63
2023/04/27 04:12:12;;;;;;;3.33;2.47;;;;;;;;;;5058381;28;20211;-62
2023/04/27 04:14:41;;;;;;;4.43;2.57;;;;;;;;;;5058243;28;20211;-60
2023/04/27 04:17:11;;;;;;;2.57;2.37;;;;;;;;;;5057887;28;20573;-60
2023/04/27 04:19:39;;;;;;;2.60;2.40;;;;;;;;;;5056697;28;20590;-59
2023/04/27 04:22:06;;;;;;;2.80;2.53;;;;;;;;;;5058081;28;20213;-60
2023/04/27 04:24:35;;;;;;;3.10;2.73;;;;;;;;;;5057800;28;20207;-60
2023/04/27 04:27:03;;;;;;;3.53;2.60;;;;;;;;;;5057630;28;20223;-60
2023/04/27 04:29:31;;;;;;;6.07;2.57;;;;;;;;;;5057176;28;20234;-60
2023/04/27 04:31:59;;;;;;;3.30;2.70;;;;;;;;;;5057868;28;20234;-60
2023/04/27 04:34:29;;;;;;;5.47;2.77;;;;;;;;;;5057618;28;20550;-61
2023/04/27 04:36:57;;;;;;;4.10;2.67;;;;;;;;;;5057585;28;20227;-61
2023/04/27 04:39:25;;;;;;;6.73;3.27;;;;;;;;;;5056943;28;20261;-61
2023/04/27 04:41:53;;;;;;;5.57;3.20;;;;;;;;;;5040219;28;20214;-60
2023/04/27 04:44:21;;;;;;;5.30;2.90;;;;;;;;;;5037726;28;20692;-60
2023/04/27 04:46:50;;;;;;;4.10;3.10;;;;;;;;;;5037807;28;20231;-60
2023/04/27 04:49:18;;;;;;;5.17;2.90;;;;;;;;;;5037448;28;20208;-60
2023/04/27 04:51:47;;;;;;;3.50;3.07;;;;;;;;;;5052681;28;20688;-61
2023/04/27 04:54:15;;;;;;;4.00;2.83;;;;;;;;;;5057674;28;20245;-60
2023/04/27 04:56:43;;;;;;;4.27;3.23;;;;;;;;;;5057315;28;20596;-60
2023/04/27 04:59:11;;;;;;;7.40;3.40;;;;;;;;;;5057273;28;20269;-61
2023/04/27 05:01:39;;;;;;;5.70;3.47;;;;;;;;;;5054164;28;20577;-63
2023/04/27 05:04:07;;;;;;;5.33;3.73;;;;;;;;;;5056214;28;20214;-61
2023/04/27 05:06:35;;;;;;;6.60;3.37;;;;;;;;;;5049863;28;20219;-60
2023/04/27 05:09:05;;;;;;;6.00;3.87;;;;;;;;;;5037251;28;20199;-60
2023/04/27 05:11:33;;;;;;;5.00;3.63;;;;;;;;;;5044730;28;20688;-60
2023/04/27 05:14:01;;;;;;;4.87;3.63;;;;;;;;;;5042816;28;20214;-62
2023/04/27 05:16:29;;;;;;;4.67;3.83;;;;;;;;;;5046468;28;20223;-62
2023/04/27 05:18:57;;;;;;;9.20;3.53;;;;;;;;;;5056750;28;20288;-62
2023/04/27 05:21:25;;;;;;;5.60;3.60;;;;;;;;;;5057382;28;20214;-61
2023/04/27 05:23:52;;;;;;;5.13;3.23;;;;;;;;;;5058399;28;20278;-60
2023/04/27 05:26:22;;;;;;;6.50;3.57;;;;;;;;;;5055028;28;20229;-60
2023/04/27 05:28:50;;;;;;;7.03;4.33;;;;;;;;;;5040884;28;20287;-60
2023/04/27 05:31:18;;;;;;;7.03;4.20;;;;;;;;;;5049764;28;20272;-60
2023/04/27 05:37:08;;;;;;;5.20;3.73;;;;;;;;;;5045021;28;20195;-59
2023/04/27 05:39:36;;;;;;;5.43;4.17;;;;;;;;;;5045377;28;20233;-59
2023/04/27 05:42:05;;;;;;;5.20;3.90;;;;;;;;;;5045195;28;20207;-59
2023/04/27 05:44:33;;;;;;;5.93;3.83;;;;;;;;;;5044225;28;20195;-59
2023/04/27 05:47:01;;;;;;;8.10;3.90;;;;;;;;;;5056679;28;20245;-58
2023/04/27 05:49:29;;;;;;;7.93;4.50;;;;;;;;;;5055206;28;20210;-59
2023/04/27 05:51:57;;;;;;;6.27;4.37;;;;;;;;;;5052257;28;20705;-59
2023/04/27 05:54:26;;;;;;;6.17;3.90;;;;;;;;;;5059653;28;20688;-59
2023/04/27 05:56:54;;;;;;;4.13;3.73;;;;;;;;;;5069548;28;20693;-59
2023/04/27 05:59:23;;;;;;;6.97;4.20;;;;;;;;;;5061609;28;20277;-59
2023/04/27 06:02:25;;;;;;;6.87;3.87;;;;;;;;;;5047036;28;20294;-59
2023/04/27 06:04:53;;;;;;;13.73;7.47;;;;;;;;;;5050636;28;20665;-59
2023/04/27 06:07:21;;;;;;;8.40;5.00;;;;;;;;;;5060426;28;20572;-59
2023/04/27 06:09:49;;;;;;;11.00;5.50;;;;;;;;;;5043467;28;20242;-60
2023/04/27 06:12:17;;;;;;;9.33;5.80;;;;;;;;;;5052578;28;20635;-60
2023/04/27 06:15:19;;;;;;;12.23;6.23;;;;;;;;;;5060305;28;20233;-59
2023/04/27 06:17:49;;;;;;;14.73;6.07;;;;;;;;;;5055577;28;20229;-60
2023/04/27 06:20:17;;;;;;;6.37;5.30;;;;;;;;;;5047480;28;20756;-60
2023/04/27 06:22:46;;;;;;;8.17;5.50;;;;;;;;;;5050947;28;20203;-60
2023/04/27 06:25:14;;;;;;;9.27;6.60;;;;;;;;;;5059398;28;20254;-59
2023/04/27 06:27:42;;;;;;;8.93;5.40;;;;;;;;;;5059978;28;20203;-59
2023/04/27 06:30:10;;;;;;;10.07;6.53;;;;;;;;;;5059992;28;20222;-59
2023/04/27 06:32:38;;;;;;;13.50;7.43;;;;;;;;;;5056463;28;20277;-59
2023/04/27 06:35:08;;;;;;;9.63;6.13;;;;;;;;;;5059238;28;20223;-60
2023/04/27 06:37:36;;;;;;;10.90;6.40;;;;;;;;;;5059877;28;20203;-59
2023/04/27 06:40:05;;;;;;;13.53;7.03;;;;;;;;;;5053119;28;20223;-60
2023/04/27 06:42:33;;;;;;;14.37;6.30;;;;;;;;;;5058714;28;20219;-59
2023/04/27 06:45:01;;;;;;;10.80;6.40;;;;;;;;;;5059518;28;20215;-59
2023/04/27 06:47:29;;;;;;;12.07;5.90;;;;;;;;;;5059406;28;20784;-60
2023/04/27 06:49:57;;;;;;;8.80;5.83;;;;;;;;;;5057485;28;20623;-59
2023/04/27 06:52:26;;;;;;;9.80;6.03;;;;;;;;;;5055105;28;20229;-59
2023/04/27 06:54:54;;;;;;;10.87;6.07;;;;;;;;;;5059370;28;20203;-59
2023/04/27 06:57:22;;;;;;;9.43;5.63;;;;;;;;;;5050325;28;20684;-59
2023/04/27 06:59:52;;;;;;;6.53;5.10;;;;;;;;;;5055270;28;20231;-59
2023/04/27 07:02:20;;;;;;;7.07;4.93;;;;;;;;;;5057750;28;20203;-59
2023/04/27 07:04:52;;;;;;;9.40;5.23;;;;;;;;;;5046135;28;20673;-59
2023/04/27 07:07:20;;;;;;;8.60;5.40;;;;;;;;;;5053706;28;20199;-60
2023/04/27 07:09:49;;;;;;;7.73;5.47;;;;;;;;;;5048816;28;20199;-60
2023/04/27 07:12:17;;;;;;;8.90;5.37;;;;;;;;;;5055470;28;20206;-60
2023/04/27 07:14:45;;;;;;;4.93;4.30;;;;;;;;;;5051331;28;20206;-60
2023/04/27 07:17:13;;;;;;;10.07;5.27;;;;;;;;;;5051444;28;20207;-59
2023/04/27 07:19:41;;;;;;;8.30;4.40;;;;;;;;;;5038393;28;20246;-59
2023/04/27 07:22:10;;;;;;;5.53;4.67;;;;;;;;;;5039105;28;20271;-60
2023/04/27 07:24:38;;;;;;;7.37;5.43;;;;;;;;;;5057699;28;20207;-60
2023/04/27 07:27:07;;;;;;;7.40;5.60;;;;;;;;;;5057982;28;20223;-62
2023/04/27 07:29:36;;;;;;;6.83;5.17;;;;;;;;;;5058714;28;20678;-62
2023/04/27 07:32:05;;;;;;;8.07;5.30;;;;;;;;;;5057247;28;20210;-63
2023/04/27 07:34:33;;;;;;;6.10;5.30;;;;;;;;;;5050599;28;20206;-63
2023/04/27 07:37:19;;;;;;;11.57;5.33;;;;;;;;;;5054061;28;20324;-63
2023/04/27 07:39:48;;;;;;;11.70;5.90;;;;;;;;;;5051875;28;20231;-63
2023/04/27 07:42:20;;;;;;;6.97;5.17;;;;;;;;;;5038374;28;20655;-63
2023/04/27 07:44:49;;;;;;;8.87;5.87;;;;;;;;;;5043286;28;20209;-62
2023/04/27 07:47:17;;;;;;;11.03;5.70;;;;;;;;;;5058451;28;20203;-62
2023/04/27 07:49:46;;;;;;;8.83;5.90;;;;;;;;;;5049831;28;20209;-63
2023/04/27 07:52:14;;;;;;;7.43;5.30;;;;;;;;;;5051246;28;20210;-62
2023/04/27 07:54:45;;;;;;;8.53;4.83;;;;;;;;;;5056503;28;20228;-62
2023/04/27 07:57:13;;;;;;;15.90;5.10;;;;;;;;;;5048637;28;20202;-62
2023/04/27 07:59:43;;;;;;;9.30;5.00;;;;;;;;;;5057656;28;20586;-62
2023/04/27 08:02:10;;;;;;;9.23;4.40;;;;;;;;;;5056747;28;20239;-63
2023/04/27 08:04:46;;;;;;;5.90;4.37;;;;;;;;;;5053038;28;20669;-63
2023/04/27 08:07:16;;;;;;;5.67;4.63;;;;;;;;;;5055699;28;20203;-63
2023/04/27 08:09:44;;;;;;;6.50;4.03;;;;;;;;;;5055379;28;20211;-63
2023/04/27 08:12:12;;;;;;;5.10;4.30;;;;;;;;;;5054694;28;20217;-63
2023/04/27 08:14:40;;;;;;;5.97;4.40;;;;;;;;;;5057734;28;20206;-63
2023/04/27 08:17:10;;;;;;;6.80;4.40;;;;;;;;;;5057036;28;20206;-63
2023/04/27 08:19:38;;;;;;;8.20;4.47;;;;;;;;;;5055136;28;20231;-62
2023/04/27 08:22:06;;;;;;;6.83;4.13;;;;;;;;;;5042465;28;20674;-62
2023/04/27 08:24:35;;;;;;;6.87;4.43;;;;;;;;;;5046599;28;20286;-63
2023/04/27 08:27:03;;;;;;;4.73;4.23;;;;;;;;;;5052183;28;20245;-62
2023/04/27 08:29:31;;;;;;;6.47;4.30;;;;;;;;;;5042962;28;20199;-62
2023/04/27 08:32:00;;;;;;;10.50;4.00;;;;;;;;;;5044393;28;20278;-62
2023/04/27 08:34:29;;;;;;;6.43;3.53;;;;;;;;;;5047151;28;20290;-63
2023/04/27 08:36:57;;;;;;;3.87;2.80;;;;;;;;;;5040680;28;20262;-63
2023/04/27 08:39:25;;;;;;;4.47;2.80;;;;;;;;;;5049943;28;20218;-63
2023/04/27 08:41:53;;;;;;;7.60;3.20;;;;;;;;;;5054652;28;20248;-63
2023/04/27 08:44:21;;;;;;;5.43;3.00;;;;;;;;;;5043239;28;20204;-62
2023/04/27 08:46:50;;;;;;;8.50;2.93;;;;;;;;;;5042122;28;20253;-63
2023/04/27 08:49:19;;;;;;;4.77;2.97;;;;;;;;;;5053539;28;20653;-63
2023/04/27 08:51:49;;;;;;;5.30;2.83;;;;;;;;;;5057543;28;20206;-63
2023/04/27 08:54:17;;;;;;;7.37;3.60;;;;;;;;;;5054608;28;20689;-63
2023/04/27 08:56:45;;;;;;;6.17;2.93;;;;;;;;;;5053586;28;20227;-63
2023/04/27 08:59:14;;;;;;;6.77;3.07;;;;;;;;;;5052405;28;20206;-63
2023/04/27 09:01:47;;;;;;;5.00;3.10;;;;;;;;;;5057649;28;20254;-63
2023/04/27 09:04:16;;;;;;;6.90;2.63;;;;;;;;;;5057050;28;20209;-63
2023/04/27 09:06:45;;;;;;;3.73;2.23;;;;;;;;;;5055728;28;20231;-63
2023/04/27 09:09:23;;;;;;;5.57;2.60;;;;;;;;;;5039832;28;20207;-63
2023/04/27 09:11:51;;;;;;;3.57;2.27;;;;;;;;;;5037269;28;20214;-61
2023/04/27 09:14:20;;;;;;;3.93;2.00;;;;;;;;;;5045434;28;20208;-63
2023/04/27 09:16:54;;;;;;;4.33;2.20;;;;;;;;;;5054867;28;20265;-62
2023/04/27 09:19:25;;;;;;;2.53;1.80;;;;;;;;;;5052480;28;20316;-62
2023/04/27 09:22:03;;;;;;;3.10;2.53;;;;;;;;;;5038805;28;20566;-63
2023/04/27 09:24:32;;;;;;;4.67;2.00;;;;;;;;;;5037789;28;20242;-62
2023/04/27 09:27:01;;;;;;;2.20;1.70;;;;;;;;;;5052150;28;20305;-63
2023/04/27 09:29:33;;;;;;;2.30;2.10;;;;;;;;;;5062391;28;20281;-62
2023/04/27 09:32:02;;;;;;;1.93;1.80;;;;;;;;;;5063532;28;20242;-63
2023/04/27 09:34:40;;;;;;;2.93;1.77;;;;;;;;;;5058279;28;20207;-63
2023/04/27 09:37:09;;;;;;;2.53;1.93;;;;;;;;;;5050809;28;20206;-62
2023/04/27 09:39:39;;;;;;;3.53;2.17;;;;;;;;;;5063022;28;20207;-63
2023/04/27 09:42:08;;;;;;;5.17;4.00;;;;;;;;;;5069046;28;20635;-63
2023/04/27 09:44:36;;;;;;;2.23;2.03;;;;;;;;;;5044587;28;20208;-63
2023/04/27 09:47:04;;;;;;;2.30;1.67;;;;;;;;;;5043424;28;20289;-63
2023/04/27 09:49:34;;;;;;;5.07;2.73;;;;;;;;;;5043512;28;20207;-63
2023/04/27 09:52:03;;;;;;;2.90;2.30;;;;;;;;;;5049666;28;20233;-63
2023/04/27 09:54:32;;;;;;;2.70;1.93;;;;;;;;;;5060574;28;20203;-63
2023/04/27 09:57:07;;;;;;;3.77;2.00;;;;;;;;;;5063018;28;20273;-63
2023/04/27 09:59:48;;;;;;;2.03;1.83;;;;;;;;;;5062932;28;20214;-63
2023/04/27 10:02:17;;;;;;;2.73;2.23;;;;;;;;;;5062983;28;20262;-63
2023/04/27 10:05:02;;;;;;;7.80;2.40;;;;;;;;;;5049511;28;20218;-63
2023/04/27 10:07:32;;;;;;;3.47;1.90;;;;;;;;;;5042948;28;20663;-63
2023/04/27 10:10:02;;;;;;;4.47;1.90;;;;;;;;;;5042695;28;20235;-63
2023/04/27 10:12:35;;;;;;;5.27;1.83;;;;;;;;;;5042601;28;20668;-63
2023/04/27 10:15:12;;;;;;;4.60;2.53;;;;;;;;;;5043251;28;20231;-63
2023/04/27 10:17:47;;;;;;;2.50;1.90;;;;;;;;;;5062673;28;20662;-63
2023/04/27 10:20:16;;;;;;;2.30;1.97;;;;;;;;;;5061340;28;20593;-63
2023/04/27 10:22:46;;;;;;;2.80;1.93;;;;;;;;;;5052999;28;20232;-63
2023/04/27 10:25:17;;;;;;;4.67;1.80;;;;;;;;;;5045222;28;20277;-63
2023/04/27 10:27:51;;;;;;;2.07;1.70;;;;;;;;;;5061606;28;20207;-63
2023/04/27 10:30:20;;;;;;;1.90;1.80;;;;;;;;;;5061678;28;20674;-63
2023/04/27 10:32:52;;;;;;;2.47;2.10;;;;;;;;;;5062231;28;20298;-63
2023/04/27 10:35:21;;;;;;;4.53;2.10;;;;;;;;;;5051294;28;20226;-63
2023/04/27 10:37:50;;;;;;;5.17;2.20;;;;;;;;;;5042002;28;20290;-63
2023/04/27 10:40:18;;;;;;;3.53;2.00;;;;;;;;;;5049938;28;20203;-63
2023/04/27 10:42:48;;;;;;;3.53;2.33;;;;;;;;;;5060506;28;20249;-63
2023/04/27 10:45:28;;;;;;;3.93;2.33;;;;;;;;;;5053361;28;20231;-63
2023/04/27 10:47:59;;;;;;;1.87;1.73;;;;;;;;;;5059461;28;20207;-63
2023/04/27 10:50:28;;;;;;;3.60;1.77;;;;;;;;;;5058028;28;20241;-63
2023/04/27 10:53:00;;;;;;;3.13;1.70;;;;;;;;;;5053386;28;20209;-63
2023/04/27 10:55:28;;;;;;;3.63;2.00;;;;;;;;;;5059360;28;20222;-62
2023/04/27 10:57:57;;;;;;;2.13;1.93;;;;;;;;;;5059421;28;20202;-62
2023/04/27 11:00:26;;;;;;;4.03;2.20;;;;;;;;;;5052355;28;20656;-63
2023/04/27 11:02:56;;;;;;;5.97;2.83;;;;;;;;;;5056988;28;20269;-62
2023/04/27 11:05:28;;;;;;;4.20;2.40;;;;;;;;;;5044688;28;20317;-63
2023/04/27 11:08:04;;;;;;;4.10;2.27;;;;;;;;;;5039205;28;20234;-63
2023/04/27 11:10:32;;;;;;;4.40;2.43;;;;;;;;;;5043038;28;20277;-62
2023/04/27 11:13:06;;;;;;;4.07;2.50;;;;;;;;;;5039198;28;20203;-62
2023/04/27 11:15:42;;;;;;;3.87;2.37;;;;;;;;;;5039054;28;20231;-62
2023/04/27 11:18:11;;;;;;;5.33;2.10;;;;;;;;;;5039186;28;20214;-62
2023/04/27 11:20:39;;;;;;;3.53;2.00;;;;;;;;;;5043055;28;20206;-63
2023/04/27 11:23:10;;;;;;;2.73;2.00;;;;;;;;;;5059237;28;20313;-63
2023/04/27 11:25:38;;;;;;;4.50;2.33;;;;;;;;;;5059007;28;20226;-63
2023/04/27 11:28:16;;;;;;;3.93;2.07;;;;;;;;;;5059091;28;20207;-63
2023/04/27 11:30:44;;;;;;;2.23;2.00;;;;;;;;;;5059040;28;20617;-63
2023/04/27 11:33:14;;;;;;;3.53;1.93;;;;;;;;;;5056076;28;20199;-63
2023/04/27 11:35:42;;;;;;;4.80;2.13;;;;;;;;;;5053490;28;20261;-62
2023/04/27 11:38:15;;;;;;;4.87;2.70;;;;;;;;;;5058600;28;20245;-61
2023/04/27 11:40:43;;;;;;;2.60;2.10;;;;;;;;;;5058937;28;20214;-62
2023/04/27 11:43:12;;;;;;;3.73;2.20;;;;;;;;;;5058721;28;20226;-63
2023/04/27 11:45:42;;;;;;;3.77;2.00;;;;;;;;;;5057631;28;20273;-63
2023/04/27 11:48:14;;;;;;;3.07;2.00;;;;;;;;;;5058141;28;20581;-61
2023/04/27 11:50:46;;;;;;;4.30;2.60;;;;;;;;;;5057796;28;20574;-61
2023/04/27 11:53:14;;;;;;;3.97;2.80;;;;;;;;;;5056696;28;20206;-62
2023/04/27 11:55:52;;;;;;;7.47;2.50;;;;;;;;;;5057515;28;20246;-62
2023/04/27 11:58:21;;;;;;;3.53;2.63;;;;;;;;;;5043294;28;20252;-62
2023/04/27 12:00:49;;;;;;;6.00;2.23;;;;;;;;;;5057805;28;20218;-61
2023/04/27 12:03:18;;;;;;;3.23;2.17;;;;;;;;;;5040157;28;20576;-61
2023/04/27 12:05:50;;;;;;;4.90;2.43;;;;;;;;;;5043339;28;20221;-61
2023/04/27 12:08:18;;;;;;;3.53;1.70;;;;;;;;;;5055702;28;20515;-61
2023/04/27 12:10:46;;;;;;;6.53;2.20;;;;;;;;;;5058323;28;20211;-62
2023/04/27 12:13:14;;;;;;;5.53;2.40;;;;;;;;;;5057507;28;20637;-61
2023/04/27 12:15:43;;;;;;;2.63;2.40;;;;;;;;;;5056578;28;20286;-61
2023/04/27 12:18:11;;;;;;;4.47;2.10;;;;;;;;;;5057819;28;20207;-61
2023/04/27 12:20:40;;;;;;;4.53;2.33;;;;;;;;;;5056536;28;20234;-62
2023/04/27 12:23:08;;;;;;;3.27;2.13;;;;;;;;;;5044300;28;20691;-62
2023/04/27 12:25:36;;;;;;;2.47;2.23;;;;;;;;;;5039015;28;20242;-61
2023/04/27 12:28:05;;;;;;;3.50;2.40;;;;;;;;;;5057834;28;20234;-62
2023/04/27 12:30:32;;;;;;;3.23;1.87;;;;;;;;;;5056171;28;20285;-62
2023/04/27 12:33:01;;;;;;;6.83;2.67;;;;;;;;;;5054088;28;20569;-62
2023/04/27 12:35:30;;;;;;;4.13;1.90;;;;;;;;;;5041479;28;20238;-61
2023/04/27 12:38:00;;;;;;;3.67;2.00;;;;;;;;;;5051000;28;20567;-62
2023/04/27 12:40:28;;;;;;;3.27;2.43;;;;;;;;;;5055425;28;20710;-63
2023/04/27 12:42:56;;;;;;;8.40;2.00;;;;;;;;;;5057741;28;20227;-62
2023/04/27 12:45:27;;;;;;;6.03;2.23;;;;;;;;;;5057315;28;20214;-62
2023/04/27 12:47:55;;;;;;;3.87;1.87;;;;;;;;;;5057670;28;20238;-62
2023/04/27 12:50:30;;;;;;;4.50;1.93;;;;;;;;;;5056490;28;20643;-62
2023/04/27 12:53:00;;;;;;;2.50;1.90;;;;;;;;;;5043858;28;20364;-61
2023/04/27 12:55:28;;;;;;;3.17;1.90;;;;;;;;;;5037364;28;20231;-62
2023/04/27 12:58:00;;;;;;;21.97;15.50;;;;;;;;;;5037826;28;20295;-62
2023/04/27 13:00:29;;;;;;;15.00;9.00;;;;;;;;;;5057683;28;20207;-61
2023/04/27 13:02:57;;;;;;;5.43;2.37;;;;;;;;;;5064719;28;20651;-62
2023/04/27 13:05:26;;;;;;;2.00;1.70;;;;;;;;;;5050872;28;20227;-61
2023/04/27 13:07:57;;;;;;;3.30;1.93;;;;;;;;;;5052515;28;20207;-61
2023/04/27 13:10:27;;;;;;;2.57;1.50;;;;;;;;;;5061664;28;20222;-61
2023/04/27 13:12:55;;;;;;;2.70;1.57;;;;;;;;;;5054160;28;20229;-61
2023/04/27 13:15:23;;;;;;;3.13;1.77;;;;;;;;;;5044417;28;20259;-61
2023/04/27 13:17:51;;;;;;;2.33;1.40;;;;;;;;;;5044269;28;20210;-61
2023/04/27 13:20:20;;;;;;;4.17;1.80;;;;;;;;;;5055669;28;20290;-63
2023/04/27 13:22:48;;;;;;;2.30;1.57;;;;;;;;;;5056685;28;20230;-62
2023/04/27 13:25:16;;;;;;;2.77;1.60;;;;;;;;;;5060894;28;20669;-63
2023/04/27 13:27:45;;;;;;;2.73;1.70;;;;;;;;;;5061121;28;20225;-62
2023/04/27 13:30:13;;;;;;;2.37;1.57;;;;;;;;;;5060671;28;20211;-62
2023/04/27 13:32:41;;;;;;;3.47;1.60;;;;;;;;;;5053517;28;20654;-62
2023/04/27 13:35:09;;;;;;;1.60;1.40;;;;;;;;;;5041045;28;20257;-62
2023/04/27 13:37:38;;;;;;;3.37;1.47;;;;;;;;;;5041009;28;20207;-63
2023/04/27 13:40:09;;;;;;;2.93;1.50;;;;;;;;;;5040894;28;20238;-62
2023/04/27 13:42:37;;;;;;;1.87;1.50;;;;;;;;;;5049766;28;20282;-62
2023/04/27 13:45:07;;;;;;;7.63;5.73;;;;;;;;;;5060933;28;20223;-62
2023/04/27 13:47:36;;;;;;;5.83;1.30;;;;;;;;;;5060694;28;20278;-62
2023/04/27 13:50:05;;;;;;;3.03;1.30;;;;;;;;;;5060737;28;20264;-63
2023/04/27 13:52:34;;;;;;;3.67;1.80;;;;;;;;;;5060622;28;20207;-63
2023/04/27 13:55:02;;;;;;;1.97;1.20;;;;;;;;;;5059894;28;20203;-63
2023/04/27 13:57:30;;;;;;;3.57;1.17;;;;;;;;;;5046268;28;20284;-63
2023/04/27 13:59:59;;;;;;;2.57;1.13;;;;;;;;;;5057009;28;20247;-63
2023/04/27 14:02:29;;;;;;;7.30;1.57;;;;;;;;;;5060356;28;20301;-63
2023/04/27 14:04:57;;;;;;;2.60;1.30;;;;;;;;;;5060369;28;20226;-62
2023/04/27 14:07:26;;;;;;;2.90;1.33;;;;;;;;;;5061739;28;20333;-63
2023/04/27 14:09:54;;;;;;;1.83;1.53;;;;;;;;;;5059635;28;20265;-63
2023/04/27 14:12:22;;;;;;;3.77;1.30;;;;;;;;;;5053493;28;20208;-62
2023/04/27 14:14:50;;;;;;;2.73;1.50;;;;;;;;;;5039791;28;20212;-63
2023/04/27 14:17:18;;;;;;;4.10;1.50;;;;;;;;;;5048060;28;20246;-63
2023/04/27 14:19:47;;;;;;;2.07;1.27;;;;;;;;;;5059913;28;20234;-62
2023/04/27 14:22:15;;;;;;;2.00;1.10;;;;;;;;;;5058666;28;20199;-63
2023/04/27 14:24:43;;;;;;;3.07;1.30;;;;;;;;;;5042238;28;20228;-63
2023/04/27 14:27:11;;;;;;;3.10;1.00;;;;;;;;;;5053667;28;20286;-63
2023/04/27 14:29:39;;;;;;;1.80;1.10;;;;;;;;;;5043335;28;20236;-63
2023/04/27 14:32:07;;;;;;;1.77;1.30;;;;;;;;;;5046541;28;20199;-63
2023/04/27 14:34:35;;;;;;;1.20;1.10;;;;;;;;;;5059657;28;20199;-63
2023/04/27 14:37:04;;;;;;;2.27;1.50;;;;;;;;;;5060066;28;20259;-62
2023/04/27 14:39:32;;;;;;;4.23;1.13;;;;;;;;;;5059853;28;20208;-63
2023/04/27 14:42:00;;;;;;;1.47;1.23;;;;;;;;;;5059135;28;20214;-62
2023/04/27 14:44:29;;;;;;;2.20;1.20;;;;;;;;;;5059622;28;20281;-63
2023/04/27 14:46:58;;;;;;;1.20;1.17;;;;;;;;;;5058478;28;20228;-62
2023/04/27 14:49:26;;;;;;;3.70;1.10;;;;;;;;;;5059465;28;20207;-62
2023/04/27 14:51:54;;;;;;;1.43;1.00;;;;;;;;;;5056881;28;20204;-63
2023/04/27 14:54:23;;;;;;;1.57;1.40;;;;;;;;;;5059383;28;20288;-63
2023/04/27 14:56:51;;;;;;;4.40;1.30;;;;;;;;;;5056387;28;20220;-63
2023/04/27 14:59:19;;;;;;;1.53;1.40;;;;;;;;;;5050926;28;20207;-62